sensor_id;sensor_type;location;lat;lon;timestamp;temperature;humidity
13694;DHT22;6919;52.344;14.518;2022-10-16T00:01:42;12.80;99.90
13694;DHT22;6919;52.344;14.518;2022-10-16T00:04:10;12.80;99.90
13694;DHT22;6919;52.344;14.518;2022-10-16T00:06:38;12.80;99.90
13694;DHT22;6919;52.344;14.518;2022-10-16T00:09:07;12.80;99.90
13694;DHT22;6919;52.344;14.518;2022-10-16T00:11:37;12.80;99.90
13694;DHT22;6919;52.344;14.518;2022-10-16T00:14:09;12.80;99.90
13694;DHT22;6919;52.344;14.518;2022-10-16T00:16:41;12.70;99.90
13694;DHT22;6919;52.344;14.518;2022-10-16T00:19:09;12.70;99.90
13694;DHT22;6919;52.344;14.518;2022-10-16T00:21:39;12.70;99.90
13694;DHT22;6919;52.344;14.518;2022-10-16T00:24:09;12.70;99.90
13694;DHT22;6919;52.344;14.518;2022-10-16T00:26:38;12.70;99.90
13694;DHT22;6919;52.344;14.518;2022-10-16T00:29:07;12.70;99.90
13694;DHT22;6919;52.344;14.518;2022-10-16T00:31:36;12.70;99.90
13694;DHT22;6919;52.344;14.518;2022-10-16T00:34:05;12.60;99.90
13694;DHT22;6919;52.344;14.518;2022-10-16T00:36:33;12.60;99.90
13694;DHT22;6919;52.344;14.518;2022-10-16T00:39:02;12.50;99.90
13694;DHT22;6919;52.344;14.518;2022-10-16T00:41:31;12.70;99.90
13694;DHT22;6919;52.344;14.518;2022-10-16T00:44:02;12.80;99.90
13694;DHT22;6919;52.344;14.518;2022-10-16T00:46:38;12.80;99.90
13694;DHT22;6919;52.344;14.518;2022-10-16T00:49:11;12.90;99.90
13694;DHT22;6919;52.344;14.518;2022-10-16T00:51:44;13.00;99.90
13694;DHT22;6919;52.344;14.518;2022-10-16T00:54:17;13.10;99.90
13694;DHT22;6919;52.344;14.518;2022-10-16T00:56:49;13.10;99.90
13694;DHT22;6919;52.344;14.518;2022-10-16T00:59:20;13.20;99.90
13694;DHT22;6919;52.344;14.518;2022-10-16T01:01:52;13.30;99.90
13694;DHT22;6919;52.344;14.518;2022-10-16T01:04:23;13.20;99.90
13694;DHT22;6919;52.344;14.518;2022-10-16T01:07:00;13.20;99.90
13694;DHT22;6919;52.344;14.518;2022-10-16T01:09:42;13.30;99.90
13694;DHT22;6919;52.344;14.518;2022-10-16T01:12:25;13.40;99.90
13694;DHT22;6919;52.344;14.518;2022-10-16T01:15:08;13.40;99.90
13694;DHT22;6919;52.344;14.518;2022-10-16T01:17:46;13.40;99.90
13694;DHT22;6919;52.344;14.518;2022-10-16T01:20:27;13.40;99.90
13694;DHT22;6919;52.344;14.518;2022-10-16T01:23:05;13.40;99.90
13694;DHT22;6919;52.344;14.518;2022-10-16T01:26:04;13.40;99.90
13694;DHT22;6919;52.344;14.518;2022-10-16T01:28:51;13.40;99.90
13694;DHT22;6919;52.344;14.518;2022-10-16T01:31:24;13.40;99.90
13694;DHT22;6919;52.344;14.518;2022-10-16T01:34:00;13.50;99.90
13694;DHT22;6919;52.344;14.518;2022-10-16T01:36:37;13.40;99.90
13694;DHT22;6919;52.344;14.518;2022-10-16T01:39:09;13.40;99.90
13694;DHT22;6919;52.344;14.518;2022-10-16T01:41:42;13.40;99.90
13694;DHT22;6919;52.344;14.518;2022-10-16T01:44:19;13.40;99.90
13694;DHT22;6919;52.344;14.518;2022-10-16T01:46:50;13.40;99.90
13694;DHT22;6919;52.344;14.518;2022-10-16T01:49:21;13.50;99.90
13694;DHT22;6919;52.344;14.518;2022-10-16T01:51:56;13.60;99.90
13694;DHT22;6919;52.344;14.518;2022-10-16T01:54:29;13.60;99.90
13694;DHT22;6919;52.344;14.518;2022-10-16T01:57:01;13.60;99.90
13694;DHT22;6919;52.344;14.518;2022-10-16T01:59:38;13.60;99.90
13694;DHT22;6919;52.344;14.518;2022-10-16T02:02:10;13.60;99.90
13694;DHT22;6919;52.344;14.518;2022-10-16T02:04:44;13.70;99.90
13694;DHT22;6919;52.344;14.518;2022-10-16T02:07:16;13.70;99.90
13694;DHT22;6919;52.344;14.518;2022-10-16T02:09:44;13.80;99.90
13694;DHT22;6919;52.344;14.518;2022-10-16T02:12:15;13.80;99.90
13694;DHT22;6919;52.344;14.518;2022-10-16T02:14:53;13.80;99.90
13694;DHT22;6919;52.344;14.518;2022-10-16T02:17:22;13.90;99.90
13694;DHT22;6919;52.344;14.518;2022-10-16T02:19:53;13.90;99.90
13694;DHT22;6919;52.344;14.518;2022-10-16T02:22:27;13.90;99.90
13694;DHT22;6919;52.344;14.518;2022-10-16T02:24:59;13.90;99.90
13694;DHT22;6919;52.344;14.518;2022-10-16T02:27:37;13.90;99.90
13694;DHT22;6919;52.344;14.518;2022-10-16T02:30:13;13.90;99.90
13694;DHT22;6919;52.344;14.518;2022-10-16T02:32:48;14.00;99.90
13694;DHT22;6919;52.344;14.518;2022-10-16T02:35:20;14.00;99.90
13694;DHT22;6919;52.344;14.518;2022-10-16T02:37:51;14.10;99.90
13694;DHT22;6919;52.344;14.518;2022-10-16T02:40:20;14.20;99.90
13694;DHT22;6919;52.344;14.518;2022-10-16T02:42:52;14.10;99.90
13694;DHT22;6919;52.344;14.518;2022-10-16T02:45:23;14.10;99.90
13694;DHT22;6919;52.344;14.518;2022-10-16T02:47:52;14.20;99.90
13694;DHT22;6919;52.344;14.518;2022-10-16T02:50:20;14.20;99.90
13694;DHT22;6919;52.344;14.518;2022-10-16T02:52:48;14.20;99.90
13694;DHT22;6919;52.344;14.518;2022-10-16T02:55:16;14.30;99.90
13694;DHT22;6919;52.344;14.518;2022-10-16T02:57:44;14.30;99.90
13694;DHT22;6919;52.344;14.518;2022-10-16T03:00:15;14.40;99.90
13694;DHT22;6919;52.344;14.518;2022-10-16T03:02:46;14.30;99.90
13694;DHT22;6919;52.344;14.518;2022-10-16T03:05:14;14.40;99.90
13694;DHT22;6919;52.344;14.518;2022-10-16T03:07:42;14.40;99.90
13694;DHT22;6919;52.344;14.518;2022-10-16T03:10:10;14.40;99.90
13694;DHT22;6919;52.344;14.518;2022-10-16T03:12:38;14.40;99.90
13694;DHT22;6919;52.344;14.518;2022-10-16T03:15:07;14.30;99.90
13694;DHT22;6919;52.344;14.518;2022-10-16T03:17:36;14.30;99.90
13694;DHT22;6919;52.344;14.518;2022-10-16T03:20:06;14.30;99.90
13694;DHT22;6919;52.344;14.518;2022-10-16T03:22:35;14.30;99.90
13694;DHT22;6919;52.344;14.518;2022-10-16T03:25:03;14.30;99.90
13694;DHT22;6919;52.344;14.518;2022-10-16T03:27:32;14.20;99.90
13694;DHT22;6919;52.344;14.518;2022-10-16T03:30:00;14.10;99.90
13694;DHT22;6919;52.344;14.518;2022-10-16T03:32:28;14.10;99.90
13694;DHT22;6919;52.344;14.518;2022-10-16T03:34:56;14.10;99.90
13694;DHT22;6919;52.344;14.518;2022-10-16T03:37:26;14.10;99.90
13694;DHT22;6919;52.344;14.518;2022-10-16T03:39:54;14.10;99.90
13694;DHT22;6919;52.344;14.518;2022-10-16T03:42:23;14.10;99.90
13694;DHT22;6919;52.344;14.518;2022-10-16T03:44:51;14.20;99.90
13694;DHT22;6919;52.344;14.518;2022-10-16T03:47:19;14.20;99.90
13694;DHT22;6919;52.344;14.518;2022-10-16T03:49:48;14.30;99.90
13694;DHT22;6919;52.344;14.518;2022-10-16T03:52:16;14.40;99.90
13694;DHT22;6919;52.344;14.518;2022-10-16T03:54:51;14.40;99.90
13694;DHT22;6919;52.344;14.518;2022-10-16T03:57:19;14.50;99.90
13694;DHT22;6919;52.344;14.518;2022-10-16T03:59:47;14.60;99.90
13694;DHT22;6919;52.344;14.518;2022-10-16T04:02:15;14.60;99.90
13694;DHT22;6919;52.344;14.518;2022-10-16T04:04:44;14.60;99.90
13694;DHT22;6919;52.344;14.518;2022-10-16T04:07:12;14.70;99.90
13694;DHT22;6919;52.344;14.518;2022-10-16T04:09:40;14.60;99.90
13694;DHT22;6919;52.344;14.518;2022-10-16T04:12:09;14.70;99.90
13694;DHT22;6919;52.344;14.518;2022-10-16T04:14:37;14.70;99.90
13694;DHT22;6919;52.344;14.518;2022-10-16T04:17:05;14.60;99.90
13694;DHT22;6919;52.344;14.518;2022-10-16T04:19:33;14.70;99.90
13694;DHT22;6919;52.344;14.518;2022-10-16T04:22:02;14.60;99.90
13694;DHT22;6919;52.344;14.518;2022-10-16T04:24:30;14.60;99.90
13694;DHT22;6919;52.344;14.518;2022-10-16T04:26:58;14.50;99.90
13694;DHT22;6919;52.344;14.518;2022-10-16T04:29:27;14.50;99.90
13694;DHT22;6919;52.344;14.518;2022-10-16T04:31:55;14.60;99.90
13694;DHT22;6919;52.344;14.518;2022-10-16T04:34:24;14.50;99.90
13694;DHT22;6919;52.344;14.518;2022-10-16T04:36:52;14.50;99.90
13694;DHT22;6919;52.344;14.518;2022-10-16T04:39:20;14.40;99.90
13694;DHT22;6919;52.344;14.518;2022-10-16T04:41:48;14.50;99.90
13694;DHT22;6919;52.344;14.518;2022-10-16T04:44:16;14.40;99.90
13694;DHT22;6919;52.344;14.518;2022-10-16T04:46:45;14.50;99.90
13694;DHT22;6919;52.344;14.518;2022-10-16T04:49:13;14.50;99.90
13694;DHT22;6919;52.344;14.518;2022-10-16T04:51:41;14.40;99.90
13694;DHT22;6919;52.344;14.518;2022-10-16T04:54:10;14.40;99.90
13694;DHT22;6919;52.344;14.518;2022-10-16T04:56:38;14.50;99.90
13694;DHT22;6919;52.344;14.518;2022-10-16T04:59:13;14.30;99.90
13694;DHT22;6919;52.344;14.518;2022-10-16T05:01:42;14.40;99.90
13694;DHT22;6919;52.344;14.518;2022-10-16T05:04:11;14.30;99.90
13694;DHT22;6919;52.344;14.518;2022-10-16T05:06:42;14.20;99.90
13694;DHT22;6919;52.344;14.518;2022-10-16T05:09:10;14.20;99.90
13694;DHT22;6919;52.344;14.518;2022-10-16T05:11:38;14.20;99.90
13694;DHT22;6919;52.344;14.518;2022-10-16T05:14:06;14.20;99.90
13694;DHT22;6919;52.344;14.518;2022-10-16T05:16:34;14.10;99.90
13694;DHT22;6919;52.344;14.518;2022-10-16T05:19:02;14.10;99.90
13694;DHT22;6919;52.344;14.518;2022-10-16T05:21:52;14.20;99.90
13694;DHT22;6919;52.344;14.518;2022-10-16T05:24:20;14.20;99.90
13694;DHT22;6919;52.344;14.518;2022-10-16T05:26:48;14.20;99.90
13694;DHT22;6919;52.344;14.518;2022-10-16T05:29:16;14.10;99.90
13694;DHT22;6919;52.344;14.518;2022-10-16T05:31:44;14.00;99.90
13694;DHT22;6919;52.344;14.518;2022-10-16T05:34:12;14.00;99.90
13694;DHT22;6919;52.344;14.518;2022-10-16T05:36:40;14.10;99.90
13694;DHT22;6919;52.344;14.518;2022-10-16T05:39:09;14.00;99.90
13694;DHT22;6919;52.344;14.518;2022-10-16T05:41:37;14.10;99.90
13694;DHT22;6919;52.344;14.518;2022-10-16T05:44:06;14.10;99.90
13694;DHT22;6919;52.344;14.518;2022-10-16T05:46:34;14.10;99.90
13694;DHT22;6919;52.344;14.518;2022-10-16T05:49:02;14.20;99.90
13694;DHT22;6919;52.344;14.518;2022-10-16T05:51:31;14.30;99.90
13694;DHT22;6919;52.344;14.518;2022-10-16T05:53:59;14.40;99.90
13694;DHT22;6919;52.344;14.518;2022-10-16T05:56:28;14.30;99.90
13694;DHT22;6919;52.344;14.518;2022-10-16T05:58:56;14.30;99.90
13694;DHT22;6919;52.344;14.518;2022-10-16T06:01:24;14.30;99.90
13694;DHT22;6919;52.344;14.518;2022-10-16T06:03:53;14.40;99.90
13694;DHT22;6919;52.344;14.518;2022-10-16T06:06:23;14.50;99.90
13694;DHT22;6919;52.344;14.518;2022-10-16T06:08:53;14.60;99.90
13694;DHT22;6919;52.344;14.518;2022-10-16T06:11:23;14.60;99.90
13694;DHT22;6919;52.344;14.518;2022-10-16T06:13:55;14.60;99.90
13694;DHT22;6919;52.344;14.518;2022-10-16T06:16:25;14.70;99.90
13694;DHT22;6919;52.344;14.518;2022-10-16T06:18:55;14.80;99.90
13694;DHT22;6919;52.344;14.518;2022-10-16T06:21:26;14.80;99.90
13694;DHT22;6919;52.344;14.518;2022-10-16T06:23:56;14.90;99.90
13694;DHT22;6919;52.344;14.518;2022-10-16T06:26:27;14.90;99.90
13694;DHT22;6919;52.344;14.518;2022-10-16T06:28:59;14.90;99.90
13694;DHT22;6919;52.344;14.518;2022-10-16T06:31:28;14.90;99.90
13694;DHT22;6919;52.344;14.518;2022-10-16T06:33:58;15.00;99.90
13694;DHT22;6919;52.344;14.518;2022-10-16T06:36:26;15.00;99.90
13694;DHT22;6919;52.344;14.518;2022-10-16T06:38:55;15.00;99.90
13694;DHT22;6919;52.344;14.518;2022-10-16T06:41:23;15.10;99.90
13694;DHT22;6919;52.344;14.518;2022-10-16T06:43:52;15.10;99.90
13694;DHT22;6919;52.344;14.518;2022-10-16T06:46:24;15.00;99.90
13694;DHT22;6919;52.344;14.518;2022-10-16T06:48:53;15.10;99.90
13694;DHT22;6919;52.344;14.518;2022-10-16T06:51:22;15.00;99.90
13694;DHT22;6919;52.344;14.518;2022-10-16T06:53:52;15.00;99.90
13694;DHT22;6919;52.344;14.518;2022-10-16T06:56:32;15.10;99.90
13694;DHT22;6919;52.344;14.518;2022-10-16T06:59:01;14.90;99.90
13694;DHT22;6919;52.344;14.518;2022-10-16T07:01:32;14.80;99.90
13694;DHT22;6919;52.344;14.518;2022-10-16T07:04:01;14.80;99.90
13694;DHT22;6919;52.344;14.518;2022-10-16T07:06:32;14.90;99.90
13694;DHT22;6919;52.344;14.518;2022-10-16T07:09:03;14.80;99.90
13694;DHT22;6919;52.344;14.518;2022-10-16T07:11:33;14.90;99.90
13694;DHT22;6919;52.344;14.518;2022-10-16T07:14:02;15.00;99.90
13694;DHT22;6919;52.344;14.518;2022-10-16T07:16:32;15.00;99.90
13694;DHT22;6919;52.344;14.518;2022-10-16T07:19:01;15.10;99.90
13694;DHT22;6919;52.344;14.518;2022-10-16T07:21:31;15.00;99.90
13694;DHT22;6919;52.344;14.518;2022-10-16T07:24:04;15.10;99.90
13694;DHT22;6919;52.344;14.518;2022-10-16T07:26:35;15.10;99.90
13694;DHT22;6919;52.344;14.518;2022-10-16T07:29:06;15.10;99.90
13694;DHT22;6919;52.344;14.518;2022-10-16T07:31:36;15.30;99.90
13694;DHT22;6919;52.344;14.518;2022-10-16T07:34:05;15.30;99.90
13694;DHT22;6919;52.344;14.518;2022-10-16T07:36:33;15.40;99.90
13694;DHT22;6919;52.344;14.518;2022-10-16T07:39:01;15.50;99.90
13694;DHT22;6919;52.344;14.518;2022-10-16T07:41:30;15.50;99.90
13694;DHT22;6919;52.344;14.518;2022-10-16T07:43:59;15.60;99.90
13694;DHT22;6919;52.344;14.518;2022-10-16T07:46:30;15.80;99.90
13694;DHT22;6919;52.344;14.518;2022-10-16T07:49:02;16.00;99.90
13694;DHT22;6919;52.344;14.518;2022-10-16T07:51:30;16.10;99.90
13694;DHT22;6919;52.344;14.518;2022-10-16T07:53:58;16.20;99.90
13694;DHT22;6919;52.344;14.518;2022-10-16T07:56:26;16.20;99.90
13694;DHT22;6919;52.344;14.518;2022-10-16T07:58:54;16.20;99.90
13694;DHT22;6919;52.344;14.518;2022-10-16T08:01:23;16.20;99.90
13694;DHT22;6919;52.344;14.518;2022-10-16T08:03:52;16.10;99.90
13694;DHT22;6919;52.344;14.518;2022-10-16T08:06:22;16.30;99.90
13694;DHT22;6919;52.344;14.518;2022-10-16T08:08:54;16.50;99.90
13694;DHT22;6919;52.344;14.518;2022-10-16T08:11:23;16.60;99.90
13694;DHT22;6919;52.344;14.518;2022-10-16T08:13:51;16.60;99.90
13694;DHT22;6919;52.344;14.518;2022-10-16T08:16:20;16.70;99.90
13694;DHT22;6919;52.344;14.518;2022-10-16T08:18:48;17.00;99.90
13694;DHT22;6919;52.344;14.518;2022-10-16T08:21:19;17.20;99.90
13694;DHT22;6919;52.344;14.518;2022-10-16T08:23:50;17.30;99.90
13694;DHT22;6919;52.344;14.518;2022-10-16T08:26:24;17.40;99.90
13694;DHT22;6919;52.344;14.518;2022-10-16T08:28:54;17.50;99.90
13694;DHT22;6919;52.344;14.518;2022-10-16T08:31:23;17.60;99.90
13694;DHT22;6919;52.344;14.518;2022-10-16T08:33:53;17.80;99.90
13694;DHT22;6919;52.344;14.518;2022-10-16T08:36:23;17.80;99.90
13694;DHT22;6919;52.344;14.518;2022-10-16T08:38:51;17.70;99.90
13694;DHT22;6919;52.344;14.518;2022-10-16T08:41:31;17.90;99.90
13694;DHT22;6919;52.344;14.518;2022-10-16T08:44:43;17.90;99.90
13694;DHT22;6919;52.344;14.518;2022-10-16T08:47:35;17.80;99.90
13694;DHT22;6919;52.344;14.518;2022-10-16T08:50:14;17.90;99.90
13694;DHT22;6919;52.344;14.518;2022-10-16T08:52:53;17.90;99.90
13694;DHT22;6919;52.344;14.518;2022-10-16T08:55:31;18.00;99.90
13694;DHT22;6919;52.344;14.518;2022-10-16T08:58:11;18.10;99.90
13694;DHT22;6919;52.344;14.518;2022-10-16T09:00:43;18.20;99.90
13694;DHT22;6919;52.344;14.518;2022-10-16T09:03:21;18.20;99.90
13694;DHT22;6919;52.344;14.518;2022-10-16T09:06:19;18.50;99.90
13694;DHT22;6919;52.344;14.518;2022-10-16T09:09:15;18.50;99.90
13694;DHT22;6919;52.344;14.518;2022-10-16T09:12:01;18.50;99.90
13694;DHT22;6919;52.344;14.518;2022-10-16T09:14:49;18.60;99.90
13694;DHT22;6919;52.344;14.518;2022-10-16T09:17:32;18.70;99.90
13694;DHT22;6919;52.344;14.518;2022-10-16T09:20:29;18.70;99.90
13694;DHT22;6919;52.344;14.518;2022-10-16T09:23:14;18.40;99.90
13694;DHT22;6919;52.344;14.518;2022-10-16T09:25:47;18.30;99.90
13694;DHT22;6919;52.344;14.518;2022-10-16T09:28:18;18.30;99.90
13694;DHT22;6919;52.344;14.518;2022-10-16T09:30:47;18.20;99.90
13694;DHT22;6919;52.344;14.518;2022-10-16T09:33:18;18.40;99.90
13694;DHT22;6919;52.344;14.518;2022-10-16T09:35:50;18.40;99.90
13694;DHT22;6919;52.344;14.518;2022-10-16T09:38:22;18.30;99.90
13694;DHT22;6919;52.344;14.518;2022-10-16T09:40:53;18.40;99.90
13694;DHT22;6919;52.344;14.518;2022-10-16T09:43:33;18.60;99.90
13694;DHT22;6919;52.344;14.518;2022-10-16T09:46:08;18.50;99.90
13694;DHT22;6919;52.344;14.518;2022-10-16T09:48:49;18.60;99.90
13694;DHT22;6919;52.344;14.518;2022-10-16T09:51:22;18.90;99.90
13694;DHT22;6919;52.344;14.518;2022-10-16T09:53:56;18.90;99.90
13694;DHT22;6919;52.344;14.518;2022-10-16T09:56:29;19.00;99.90
13694;DHT22;6919;52.344;14.518;2022-10-16T09:59:02;18.80;99.90
13694;DHT22;6919;52.344;14.518;2022-10-16T10:01:38;18.80;99.90
13694;DHT22;6919;52.344;14.518;2022-10-16T10:04:07;18.80;99.90
13694;DHT22;6919;52.344;14.518;2022-10-16T10:06:40;18.80;99.90
13694;DHT22;6919;52.344;14.518;2022-10-16T10:09:19;18.70;99.90
13694;DHT22;6919;52.344;14.518;2022-10-16T10:11:54;18.60;99.90
13694;DHT22;6919;52.344;14.518;2022-10-16T10:14:27;18.60;99.90
13694;DHT22;6919;52.344;14.518;2022-10-16T10:17:13;18.80;99.90
13694;DHT22;6919;52.344;14.518;2022-10-16T10:19:49;18.90;99.90
13694;DHT22;6919;52.344;14.518;2022-10-16T10:22:28;19.10;99.90
13694;DHT22;6919;52.344;14.518;2022-10-16T10:25:15;19.00;99.90
13694;DHT22;6919;52.344;14.518;2022-10-16T10:31:17;18.70;99.90
13694;DHT22;6919;52.344;14.518;2022-10-16T10:33:54;18.90;98.70
13694;DHT22;6919;52.344;14.518;2022-10-16T10:36:33;18.80;1.00
13694;DHT22;6919;52.344;14.518;2022-10-16T10:39:07;18.90;1.00
13694;DHT22;6919;52.344;14.518;2022-10-16T10:41:54;18.90;1.00
13694;DHT22;6919;52.344;14.518;2022-10-16T10:45:11;18.90;1.00
13694;DHT22;6919;52.344;14.518;2022-10-16T10:47:55;18.90;1.00
13694;DHT22;6919;52.344;14.518;2022-10-16T10:50:36;19.00;1.00
13694;DHT22;6919;52.344;14.518;2022-10-16T10:53:16;19.10;1.00
13694;DHT22;6919;52.344;14.518;2022-10-16T10:55:57;19.00;1.00
13694;DHT22;6919;52.344;14.518;2022-10-16T10:58:47;19.10;1.00
13694;DHT22;6919;52.344;14.518;2022-10-16T11:01:33;19.10;99.90
13694;DHT22;6919;52.344;14.518;2022-10-16T11:04:33;19.10;1.00
13694;DHT22;6919;52.344;14.518;2022-10-16T11:07:26;19.10;1.00
13694;DHT22;6919;52.344;14.518;2022-10-16T11:10:02;19.30;99.90
13694;DHT22;6919;52.344;14.518;2022-10-16T11:12:36;19.40;99.90
13694;DHT22;6919;52.344;14.518;2022-10-16T11:15:13;19.70;1.00
13694;DHT22;6919;52.344;14.518;2022-10-16T11:17:50;19.70;1.00
13694;DHT22;6919;52.344;14.518;2022-10-16T11:20:24;19.60;1.00
13694;DHT22;6919;52.344;14.518;2022-10-16T11:22:56;19.70;99.90
13694;DHT22;6919;52.344;14.518;2022-10-16T11:25:30;19.60;99.90
13694;DHT22;6919;52.344;14.518;2022-10-16T11:28:02;19.70;1.00
13694;DHT22;6919;52.344;14.518;2022-10-16T11:30:43;19.70;59.40
13694;DHT22;6919;52.344;14.518;2022-10-16T11:33:27;19.80;1.00
13694;DHT22;6919;52.344;14.518;2022-10-16T11:36:05;19.80;99.90
13694;DHT22;6919;52.344;14.518;2022-10-16T11:38:44;19.90;40.80
13694;DHT22;6919;52.344;14.518;2022-10-16T11:41:24;19.90;1.00
13694;DHT22;6919;52.344;14.518;2022-10-16T11:44:14;19.80;93.40
13694;DHT22;6919;52.344;14.518;2022-10-16T11:46:52;19.80;1.00
13694;DHT22;6919;52.344;14.518;2022-10-16T11:49:55;19.90;99.10
13694;DHT22;6919;52.344;14.518;2022-10-16T11:52:33;20.10;1.00
13694;DHT22;6919;52.344;14.518;2022-10-16T11:55:09;20.20;1.00
13694;DHT22;6919;52.344;14.518;2022-10-16T11:57:45;20.00;1.00
13694;DHT22;6919;52.344;14.518;2022-10-16T12:00:21;19.60;1.00
13694;DHT22;6919;52.344;14.518;2022-10-16T12:03:00;19.60;99.90
13694;DHT22;6919;52.344;14.518;2022-10-16T12:05:44;19.70;1.00
13694;DHT22;6919;52.344;14.518;2022-10-16T12:08:23;19.90;99.90
13694;DHT22;6919;52.344;14.518;2022-10-16T12:10:52;20.10;1.00
13694;DHT22;6919;52.344;14.518;2022-10-16T12:13:30;20.30;99.90
13694;DHT22;6919;52.344;14.518;2022-10-16T12:16:16;20.50;1.00
13694;DHT22;6919;52.344;14.518;2022-10-16T12:18:49;20.50;1.00
13694;DHT22;6919;52.344;14.518;2022-10-16T12:21:31;20.60;1.00
13694;DHT22;6919;52.344;14.518;2022-10-16T12:24:02;20.40;1.00
13694;DHT22;6919;52.344;14.518;2022-10-16T12:26:33;20.40;1.00
13694;DHT22;6919;52.344;14.518;2022-10-16T12:29:14;20.40;1.00
13694;DHT22;6919;52.344;14.518;2022-10-16T12:31:55;20.30;1.00
13694;DHT22;6919;52.344;14.518;2022-10-16T12:34:28;20.20;1.00
13694;DHT22;6919;52.344;14.518;2022-10-16T12:37:11;20.00;1.00
13694;DHT22;6919;52.344;14.518;2022-10-16T12:39:43;20.00;45.80
13694;DHT22;6919;52.344;14.518;2022-10-16T12:42:23;19.90;1.00
13694;DHT22;6919;52.344;14.518;2022-10-16T12:45:01;19.80;1.00
13694;DHT22;6919;52.344;14.518;2022-10-16T12:47:49;19.60;1.00
13694;DHT22;6919;52.344;14.518;2022-10-16T12:50:25;19.60;99.90
13694;DHT22;6919;52.344;14.518;2022-10-16T12:53:00;19.80;1.00
13694;DHT22;6919;52.344;14.518;2022-10-16T12:55:34;19.80;1.00
13694;DHT22;6919;52.344;14.518;2022-10-16T12:58:26;19.80;1.00
13694;DHT22;6919;52.344;14.518;2022-10-16T13:01:15;20.20;1.00
13694;DHT22;6919;52.344;14.518;2022-10-16T13:04:06;20.30;1.00
13694;DHT22;6919;52.344;14.518;2022-10-16T13:07:14;20.60;1.00
13694;DHT22;6919;52.344;14.518;2022-10-16T13:10:04;20.60;99.90
13694;DHT22;6919;52.344;14.518;2022-10-16T13:12:57;21.00;99.90
13694;DHT22;6919;52.344;14.518;2022-10-16T13:16:01;21.50;1.00
13694;DHT22;6919;52.344;14.518;2022-10-16T13:18:50;22.20;1.00
13694;DHT22;6919;52.344;14.518;2022-10-16T13:21:35;22.40;1.00
13694;DHT22;6919;52.344;14.518;2022-10-16T13:24:23;22.10;1.00
13694;DHT22;6919;52.344;14.518;2022-10-16T13:27:21;22.30;1.00
13694;DHT22;6919;52.344;14.518;2022-10-16T13:30:02;22.40;1.00
13694;DHT22;6919;52.344;14.518;2022-10-16T13:32:43;23.10;1.00
13694;DHT22;6919;52.344;14.518;2022-10-16T13:35:26;23.50;1.00
13694;DHT22;6919;52.344;14.518;2022-10-16T13:38:08;23.40;1.00
13694;DHT22;6919;52.344;14.518;2022-10-16T13:40:52;23.70;1.00
13694;DHT22;6919;52.344;14.518;2022-10-16T13:43:26;23.10;1.00
13694;DHT22;6919;52.344;14.518;2022-10-16T13:45:59;23.40;1.00
13694;DHT22;6919;52.344;14.518;2022-10-16T13:48:29;23.50;1.00
13694;DHT22;6919;52.344;14.518;2022-10-16T13:51:11;23.30;99.90
13694;DHT22;6919;52.344;14.518;2022-10-16T13:53:41;23.50;99.90
13694;DHT22;6919;52.344;14.518;2022-10-16T13:56:12;23.90;99.90
13694;DHT22;6919;52.344;14.518;2022-10-16T13:58:43;24.30;99.90
13694;DHT22;6919;52.344;14.518;2022-10-16T14:01:16;24.50;99.90
13694;DHT22;6919;52.344;14.518;2022-10-16T14:03:47;24.20;99.90
13694;DHT22;6919;52.344;14.518;2022-10-16T14:06:19;24.20;99.90
13694;DHT22;6919;52.344;14.518;2022-10-16T14:08:53;24.10;99.90
13694;DHT22;6919;52.344;14.518;2022-10-16T14:11:27;24.50;99.90
13694;DHT22;6919;52.344;14.518;2022-10-16T14:13:57;24.50;99.90
13694;DHT22;6919;52.344;14.518;2022-10-16T14:16:29;24.20;99.90
13694;DHT22;6919;52.344;14.518;2022-10-16T14:19:01;23.50;99.90
13694;DHT22;6919;52.344;14.518;2022-10-16T14:21:33;23.80;99.90
13694;DHT22;6919;52.344;14.518;2022-10-16T14:24:11;24.00;99.90
13694;DHT22;6919;52.344;14.518;2022-10-16T14:26:42;24.00;99.90
13694;DHT22;6919;52.344;14.518;2022-10-16T14:29:20;23.90;99.90
13694;DHT22;6919;52.344;14.518;2022-10-16T14:31:55;23.70;99.90
13694;DHT22;6919;52.344;14.518;2022-10-16T14:34:27;23.70;99.90
13694;DHT22;6919;52.344;14.518;2022-10-16T14:37:00;24.10;99.90
13694;DHT22;6919;52.344;14.518;2022-10-16T14:39:39;23.50;99.90
13694;DHT22;6919;52.344;14.518;2022-10-16T14:42:14;23.30;99.90
13694;DHT22;6919;52.344;14.518;2022-10-16T14:44:47;22.70;1.00
13694;DHT22;6919;52.344;14.518;2022-10-16T14:47:18;21.80;1.00
13694;DHT22;6919;52.344;14.518;2022-10-16T14:49:52;21.30;1.00
13694;DHT22;6919;52.344;14.518;2022-10-16T14:52:25;21.10;1.00
13694;DHT22;6919;52.344;14.518;2022-10-16T14:54:53;20.70;99.90
13694;DHT22;6919;52.344;14.518;2022-10-16T14:57:25;20.50;99.90
13694;DHT22;6919;52.344;14.518;2022-10-16T14:59:57;20.30;1.00
13694;DHT22;6919;52.344;14.518;2022-10-16T15:02:28;20.20;1.00
13694;DHT22;6919;52.344;14.518;2022-10-16T15:04:58;20.10;1.00
13694;DHT22;6919;52.344;14.518;2022-10-16T15:07:37;20.10;1.00
13694;DHT22;6919;52.344;14.518;2022-10-16T15:10:06;19.80;1.00
13694;DHT22;6919;52.344;14.518;2022-10-16T15:12:34;19.70;99.90
13694;DHT22;6919;52.344;14.518;2022-10-16T15:15:23;19.70;69.60
13694;DHT22;6919;52.344;14.518;2022-10-16T15:17:56;19.60;96.10
13694;DHT22;6919;52.344;14.518;2022-10-16T15:20:28;19.50;99.90
13694;DHT22;6919;52.344;14.518;2022-10-16T15:22:57;19.40;99.90
13694;DHT22;6919;52.344;14.518;2022-10-16T15:25:30;19.30;1.00
13694;DHT22;6919;52.344;14.518;2022-10-16T15:28:03;19.20;86.50
13694;DHT22;6919;52.344;14.518;2022-10-16T15:30:33;19.10;99.90
13694;DHT22;6919;52.344;14.518;2022-10-16T15:33:03;19.10;1.00
13694;DHT22;6919;52.344;14.518;2022-10-16T15:35:32;18.90;1.00
13694;DHT22;6919;52.344;14.518;2022-10-16T15:38:01;18.90;1.00
13694;DHT22;6919;52.344;14.518;2022-10-16T15:40:29;18.80;1.00
13694;DHT22;6919;52.344;14.518;2022-10-16T15:42:57;18.60;99.90
13694;DHT22;6919;52.344;14.518;2022-10-16T15:45:25;18.50;99.90
13694;DHT22;6919;52.344;14.518;2022-10-16T15:47:54;18.40;99.90
13694;DHT22;6919;52.344;14.518;2022-10-16T15:50:23;18.30;99.90
13694;DHT22;6919;52.344;14.518;2022-10-16T15:52:51;18.20;1.00
13694;DHT22;6919;52.344;14.518;2022-10-16T15:55:19;18.00;1.00
13694;DHT22;6919;52.344;14.518;2022-10-16T15:57:47;18.00;1.00
13694;DHT22;6919;52.344;14.518;2022-10-16T16:00:18;17.80;1.00
13694;DHT22;6919;52.344;14.518;2022-10-16T16:02:52;17.70;1.00
13694;DHT22;6919;52.344;14.518;2022-10-16T16:05:22;17.60;1.00
13694;DHT22;6919;52.344;14.518;2022-10-16T16:07:50;17.20;1.00
13694;DHT22;6919;52.344;14.518;2022-10-16T16:10:19;17.30;1.00
13694;DHT22;6919;52.344;14.518;2022-10-16T16:12:48;17.20;1.00
13694;DHT22;6919;52.344;14.518;2022-10-16T16:15:19;17.00;1.00
13694;DHT22;6919;52.344;14.518;2022-10-16T16:17:48;16.90;1.00
13694;DHT22;6919;52.344;14.518;2022-10-16T16:20:18;16.90;1.00